sensor_id;sensor_type;location;lat;lon;timestamp;pressure;altitude;pressure_sealevel;temperature;humidity
7888;BME280;3989;48.810;9.208;2023-09-07T00:00:36;98985.53;;;14.24;100.00
7888;BME280;3989;48.810;9.208;2023-09-07T00:03:15;98846.63;;;13.30;100.00
7888;BME280;3989;48.810;9.208;2023-09-07T00:05:42;99003.47;;;14.24;100.00
7888;BME280;3989;48.810;9.208;2023-09-07T00:08:09;98921.16;;;13.68;100.00
7888;BME280;3989;48.810;9.208;2023-09-07T00:10:37;98929.38;;;13.67;100.00
7888;BME280;3989;48.810;9.208;2023-09-07T00:13:17;98956.97;;;13.82;100.00
7888;BME280;3989;48.810;9.208;2023-09-07T00:20:55;99024.81;;;14.04;100.00
7888;BME280;3989;48.810;9.208;2023-09-07T00:26:24;98996.91;;;13.98;100.00
7888;BME280;3989;48.810;9.208;2023-09-07T00:32:10;99124.00;;;14.67;100.00
7888;BME280;3989;48.810;9.208;2023-09-07T00:34:40;98989.47;;;14.00;100.00
7888;BME280;3989;48.810;9.208;2023-09-07T00:39:44;98785.06;;;12.66;100.00
7888;BME280;3989;48.810;9.208;2023-09-07T00:45:47;99109.63;;;14.47;100.00
7888;BME280;3989;48.810;9.208;2023-09-07T00:48:15;98992.78;;;13.75;100.00
7888;BME280;3989;48.810;9.208;2023-09-07T03:21:21;98990.75;;;12.48;100.00
7888;BME280;3989;48.810;9.208;2023-09-07T03:24:22;98815.59;;;11.27;100.00
7888;BME280;3989;48.810;9.208;2023-09-07T03:30:46;98949.16;;;12.16;100.00
7888;BME280;3989;48.810;9.208;2023-09-07T07:25:08;99034.06;;;17.52;100.00
7888;BME280;3989;48.810;9.208;2023-09-07T07:27:51;99022.22;;;17.60;100.00
7888;BME280;3989;48.810;9.208;2023-09-07T08:40:14;99126.03;;;21.42;100.00
7888;BME280;3989;48.810;9.208;2023-09-07T08:43:05;99067.09;;;20.91;100.00
7888;BME280;3989;48.810;9.208;2023-09-07T08:45:41;99081.50;;;20.92;100.00
7888;BME280;3989;48.810;9.208;2023-09-07T08:48:08;99072.63;;;21.08;100.00
7888;BME280;3989;48.810;9.208;2023-09-07T08:50:36;99095.13;;;21.32;100.00
7888;BME280;3989;48.810;9.208;2023-09-07T08:53:04;99066.91;;;21.33;100.00
7888;BME280;3989;48.810;9.208;2023-09-07T08:55:34;99031.09;;;21.19;100.00
7888;BME280;3989;48.810;9.208;2023-09-07T08:58:01;99133.06;;;21.95;100.00
7888;BME280;3989;48.810;9.208;2023-09-07T09:00:28;99121.56;;;22.05;100.00
7888;BME280;3989;48.810;9.208;2023-09-07T09:03:29;99056.28;;;21.88;100.00
7888;BME280;3989;48.810;9.208;2023-09-07T09:06:11;99064.91;;;21.96;100.00
7888;BME280;3989;48.810;9.208;2023-09-07T09:11:45;99125.38;;;22.20;100.00
7888;BME280;3989;48.810;9.208;2023-09-07T09:14:49;99076.34;;;21.98;100.00
7888;BME280;3989;48.810;9.208;2023-09-07T09:17:30;99124.06;;;22.39;100.00
7888;BME280;3989;48.810;9.208;2023-09-07T09:20:47;99134.44;;;22.59;100.00
7888;BME280;3989;48.810;9.208;2023-09-07T09:26:18;99078.66;;;22.57;100.00
7888;BME280;3989;48.810;9.208;2023-09-07T09:29:34;99048.34;;;22.48;100.00
7888;BME280;3989;48.810;9.208;2023-09-07T09:32:46;99108.47;;;23.01;100.00
7888;BME280;3989;48.810;9.208;2023-09-07T09:41:24;99059.72;;;23.00;100.00
7888;BME280;3989;48.810;9.208;2023-09-07T09:44:10;99051.19;;;23.13;100.00
7888;BME280;3989;48.810;9.208;2023-09-07T09:52:28;99049.16;;;23.04;100.00
7888;BME280;3989;48.810;9.208;2023-09-07T09:55:16;98996.72;;;22.53;100.00
7888;BME280;3989;48.810;9.208;2023-09-07T09:58:08;98988.84;;;22.90;100.00
7888;BME280;3989;48.810;9.208;2023-09-07T10:00:58;99041.34;;;23.56;100.00
7888;BME280;3989;48.810;9.208;2023-09-07T10:04:02;99001.56;;;23.55;100.00
7888;BME280;3989;48.810;9.208;2023-09-07T10:06:53;98969.94;;;23.48;100.00
7888;BME280;3989;48.810;9.208;2023-09-07T10:09:22;99004.53;;;23.80;100.00
7888;BME280;3989;48.810;9.208;2023-09-07T10:11:53;99050.59;;;24.08;100.00
7888;BME280;3989;48.810;9.208;2023-09-07T10:14:20;99091.72;;;24.33;100.00
7888;BME280;3989;48.810;9.208;2023-09-07T10:16:48;99095.25;;;24.29;100.00
7888;BME280;3989;48.810;9.208;2023-09-07T10:19:17;98940.34;;;23.62;100.00
7888;BME280;3989;48.810;9.208;2023-09-07T10:21:44;98938.59;;;23.78;100.00
7888;BME280;3989;48.810;9.208;2023-09-07T10:24:11;99011.19;;;24.21;100.00
7888;BME280;3989;48.810;9.208;2023-09-07T10:26:40;98942.16;;;23.83;100.00
7888;BME280;3989;48.810;9.208;2023-09-07T10:29:07;99000.34;;;24.31;100.00
7888;BME280;3989;48.810;9.208;2023-09-07T10:31:34;99017.59;;;24.41;100.00
7888;BME280;3989;48.810;9.208;2023-09-07T10:34:08;99027.03;;;24.66;99.72
7888;BME280;3989;48.810;9.208;2023-09-07T10:36:37;98931.44;;;24.09;98.91
7888;BME280;3989;48.810;9.208;2023-09-07T10:39:05;98980.19;;;24.37;98.88
7888;BME280;3989;48.810;9.208;2023-09-07T10:41:44;98979.19;;;24.48;96.90
7888;BME280;3989;48.810;9.208;2023-09-07T10:44:11;98976.00;;;24.61;95.32
7888;BME280;3989;48.810;9.208;2023-09-07T10:46:53;98974.34;;;24.60;94.59
7888;BME280;3989;48.810;9.208;2023-09-07T10:52:24;98984.31;;;24.86;92.19
7888;BME280;3989;48.810;9.208;2023-09-07T10:55:05;98912.34;;;24.50;93.42
7888;BME280;3989;48.810;9.208;2023-09-07T10:57:43;98995.06;;;25.08;93.70
7888;BME280;3989;48.810;9.208;2023-09-07T11:00:11;98998.97;;;25.32;91.80
7888;BME280;3989;48.810;9.208;2023-09-07T11:02:39;98893.91;;;24.78;88.33
7888;BME280;3989;48.810;9.208;2023-09-07T11:05:07;98914.44;;;24.85;88.66
7888;BME280;3989;48.810;9.208;2023-09-07T11:07:35;98911.44;;;24.87;90.30
7888;BME280;3989;48.810;9.208;2023-09-07T11:10:06;98980.41;;;25.29;86.88
7888;BME280;3989;48.810;9.208;2023-09-07T11:12:39;98978.34;;;24.94;88.48
7888;BME280;3989;48.810;9.208;2023-09-07T11:15:08;98997.34;;;25.46;87.54
7888;BME280;3989;48.810;9.208;2023-09-07T11:17:37;98956.63;;;25.40;82.78
7888;BME280;3989;48.810;9.208;2023-09-07T11:20:06;98897.31;;;25.10;81.07
7888;BME280;3989;48.810;9.208;2023-09-07T11:22:59;98949.56;;;25.49;80.69
7888;BME280;3989;48.810;9.208;2023-09-07T11:25:26;98976.94;;;25.74;80.09
7888;BME280;3989;48.810;9.208;2023-09-07T11:27:57;98893.25;;;25.33;81.32
7888;BME280;3989;48.810;9.208;2023-09-07T11:30:24;98867.00;;;25.27;82.34
7888;BME280;3989;48.810;9.208;2023-09-07T11:33:00;99045.34;;;26.40;79.65
7888;BME280;3989;48.810;9.208;2023-09-07T11:35:27;99029.75;;;26.40;79.38
7888;BME280;3989;48.810;9.208;2023-09-07T11:37:54;98936.75;;;25.90;75.78
7888;BME280;3989;48.810;9.208;2023-09-07T11:40:21;98876.91;;;25.63;75.20
7888;BME280;3989;48.810;9.208;2023-09-07T11:42:47;98974.75;;;26.32;75.05
7888;BME280;3989;48.810;9.208;2023-09-07T11:45:16;98892.19;;;25.79;68.62
7888;BME280;3989;48.810;9.208;2023-09-07T11:47:57;98882.91;;;25.90;68.19
7888;BME280;3989;48.810;9.208;2023-09-07T11:50:24;98909.94;;;26.07;71.09
7888;BME280;3989;48.810;9.208;2023-09-07T11:52:51;98947.09;;;26.43;69.84
7888;BME280;3989;48.810;9.208;2023-09-07T11:55:18;98876.88;;;26.03;66.93
7888;BME280;3989;48.810;9.208;2023-09-07T11:57:45;98960.25;;;26.41;65.79
7888;BME280;3989;48.810;9.208;2023-09-07T12:00:17;98932.91;;;26.36;65.30
7888;BME280;3989;48.810;9.208;2023-09-07T12:02:44;98947.06;;;26.58;68.60
7888;BME280;3989;48.810;9.208;2023-09-07T12:05:11;98977.66;;;26.76;69.05
7888;BME280;3989;48.810;9.208;2023-09-07T12:07:41;98882.56;;;26.32;65.72
7888;BME280;3989;48.810;9.208;2023-09-07T12:10:09;98931.97;;;26.66;60.73
7888;BME280;3989;48.810;9.208;2023-09-07T12:12:41;98952.47;;;26.74;63.04
7888;BME280;3989;48.810;9.208;2023-09-07T12:15:08;98956.03;;;26.84;58.66
7888;BME280;3989;48.810;9.208;2023-09-07T12:17:42;98911.44;;;26.69;59.46
7888;BME280;3989;48.810;9.208;2023-09-07T12:20:09;98891.69;;;26.77;58.93
7888;BME280;3989;48.810;9.208;2023-09-07T12:22:39;98902.84;;;26.95;55.84
7888;BME280;3989;48.810;9.208;2023-09-07T12:25:06;98887.22;;;26.96;56.68
7888;BME280;3989;48.810;9.208;2023-09-07T12:27:36;98947.03;;;27.33;56.66
7888;BME280;3989;48.810;9.208;2023-09-07T12:30:04;98992.81;;;27.76;57.52
7888;BME280;3989;48.810;9.208;2023-09-07T12:32:39;98936.56;;;27.45;55.43
7888;BME280;3989;48.810;9.208;2023-09-07T12:35:07;98932.16;;;27.49;54.25
7888;BME280;3989;48.810;9.208;2023-09-07T12:37:35;98890.94;;;27.20;55.32
7888;BME280;3989;48.810;9.208;2023-09-07T12:40:02;98842.66;;;26.85;53.81
7888;BME280;3989;48.810;9.208;2023-09-07T12:42:37;98992.22;;;27.79;53.67
7888;BME280;3989;48.810;9.208;2023-09-07T12:45:06;98893.53;;;27.45;54.23
7888;BME280;3989;48.810;9.208;2023-09-07T12:47:33;98948.09;;;27.76;53.05
7888;BME280;3989;48.810;9.208;2023-09-07T12:50:02;98913.53;;;27.80;52.00
7888;BME280;3989;48.810;9.208;2023-09-07T12:52:30;98916.31;;;27.75;52.57
7888;BME280;3989;48.810;9.208;2023-09-07T12:54:57;98968.28;;;27.95;53.85
7888;BME280;3989;48.810;9.208;2023-09-07T12:57:24;98926.22;;;27.71;55.58
7888;BME280;3989;48.810;9.208;2023-09-07T12:59:51;98983.53;;;28.11;54.91
7888;BME280;3989;48.810;9.208;2023-09-07T13:02:17;98879.09;;;27.69;53.34
7888;BME280;3989;48.810;9.208;2023-09-07T13:04:44;98879.78;;;27.79;53.67
7888;BME280;3989;48.810;9.208;2023-09-07T13:07:14;98884.19;;;27.80;52.60
7888;BME280;3989;48.810;9.208;2023-09-07T13:09:46;98826.53;;;27.23;51.72
7888;BME280;3989;48.810;9.208;2023-09-07T13:12:24;98840.91;;;27.38;52.55
7888;BME280;3989;48.810;9.208;2023-09-07T13:14:50;98975.16;;;28.21;54.15
7888;BME280;3989;48.810;9.208;2023-09-07T13:17:18;98851.19;;;27.56;54.59
7888;BME280;3989;48.810;9.208;2023-09-07T13:19:45;98927.06;;;28.00;51.60
7888;BME280;3989;48.810;9.208;2023-09-07T13:22:15;98881.09;;;27.87;51.81
7888;BME280;3989;48.810;9.208;2023-09-07T13:24:56;98966.88;;;28.55;49.83
7888;BME280;3989;48.810;9.208;2023-09-07T13:27:23;98864.97;;;28.14;49.51
7888;BME280;3989;48.810;9.208;2023-09-07T13:29:51;98872.06;;;28.15;49.88
7888;BME280;3989;48.810;9.208;2023-09-07T13:32:31;98890.53;;;28.33;49.78
7888;BME280;3989;48.810;9.208;2023-09-07T13:34:58;98892.88;;;28.45;49.91
7888;BME280;3989;48.810;9.208;2023-09-07T13:37:27;98904.47;;;28.60;49.28
7888;BME280;3989;48.810;9.208;2023-09-07T13:39:55;98949.75;;;28.92;49.37
7888;BME280;3989;48.810;9.208;2023-09-07T13:42:22;98900.22;;;28.73;48.82
7888;BME280;3989;48.810;9.208;2023-09-07T13:44:48;98889.94;;;28.60;49.24
7888;BME280;3989;48.810;9.208;2023-09-07T13:47:16;98943.09;;;28.93;48.64
7888;BME280;3989;48.810;9.208;2023-09-07T13:49:43;98824.66;;;28.33;49.65
7888;BME280;3989;48.810;9.208;2023-09-07T13:52:09;98851.81;;;28.58;49.68
7888;BME280;3989;48.810;9.208;2023-09-07T13:54:39;98862.09;;;28.72;48.55
7888;BME280;3989;48.810;9.208;2023-09-07T13:57:06;98828.38;;;28.66;48.82
7888;BME280;3989;48.810;9.208;2023-09-07T13:59:33;98907.13;;;29.13;48.38
7888;BME280;3989;48.810;9.208;2023-09-07T14:02:01;98795.09;;;28.49;48.23
7888;BME280;3989;48.810;9.208;2023-09-07T14:04:28;98807.41;;;28.75;47.90
7888;BME280;3989;48.810;9.208;2023-09-07T14:06:56;98949.19;;;29.51;47.74
7888;BME280;3989;48.810;9.208;2023-09-07T14:09:23;98926.38;;;29.50;47.45
7888;BME280;3989;48.810;9.208;2023-09-07T14:11:51;98788.19;;;28.51;46.82
7888;BME280;3989;48.810;9.208;2023-09-07T14:14:32;98879.88;;;28.98;46.73
7888;BME280;3989;48.810;9.208;2023-09-07T14:16:59;98893.78;;;29.25;47.12
7888;BME280;3989;48.810;9.208;2023-09-07T14:19:26;98883.69;;;29.39;45.03
7888;BME280;3989;48.810;9.208;2023-09-07T14:21:56;98807.31;;;29.17;44.65
7888;BME280;3989;48.810;9.208;2023-09-07T14:24:23;98932.97;;;29.87;45.21
7888;BME280;3989;48.810;9.208;2023-09-07T14:26:51;98942.34;;;29.86;45.87
7888;BME280;3989;48.810;9.208;2023-09-07T14:29:18;98811.97;;;28.98;45.73
7888;BME280;3989;48.810;9.208;2023-09-07T14:31:45;98801.97;;;29.07;45.50
7888;BME280;3989;48.810;9.208;2023-09-07T14:34:12;98795.50;;;29.17;44.89
7888;BME280;3989;48.810;9.208;2023-09-07T14:36:39;98824.53;;;29.23;44.72
7888;BME280;3989;48.810;9.208;2023-09-07T14:39:07;98829.38;;;29.31;45.43
7888;BME280;3989;48.810;9.208;2023-09-07T14:41:34;98910.38;;;29.90;45.40
7888;BME280;3989;48.810;9.208;2023-09-07T14:44:02;98928.06;;;30.16;45.39
7888;BME280;3989;48.810;9.208;2023-09-07T14:46:29;98876.56;;;29.70;44.66
7888;BME280;3989;48.810;9.208;2023-09-07T14:48:56;98835.63;;;29.50;44.44
7888;BME280;3989;48.810;9.208;2023-09-07T14:51:23;98847.50;;;29.64;44.27
7888;BME280;3989;48.810;9.208;2023-09-07T14:53:50;98876.19;;;30.37;43.10
7888;BME280;3989;48.810;9.208;2023-09-07T14:56:16;98813.78;;;31.31;40.05
7888;BME280;3989;48.810;9.208;2023-09-07T14:58:44;98923.59;;;33.88;37.14
7888;BME280;3989;48.810;9.208;2023-09-07T15:01:12;98849.34;;;34.74;34.76
7888;BME280;3989;48.810;9.208;2023-09-07T15:03:39;98899.34;;;37.44;31.18
7888;BME280;3989;48.810;9.208;2023-09-07T15:06:06;98885.44;;;38.43;29.73
7888;BME280;3989;48.810;9.208;2023-09-07T15:08:38;98835.25;;;36.40;32.14
7888;BME280;3989;48.810;9.208;2023-09-07T15:11:05;98769.91;;;37.65;29.62
7888;BME280;3989;48.810;9.208;2023-09-07T15:13:32;98822.59;;;37.86;30.04
7888;BME280;3989;48.810;9.208;2023-09-07T15:15:59;98793.53;;;38.15;29.70
7888;BME280;3989;48.810;9.208;2023-09-07T15:18:29;98942.03;;;35.23;33.98
7888;BME280;3989;48.810;9.208;2023-09-07T15:20:57;98875.66;;;36.37;32.13
7888;BME280;3989;48.810;9.208;2023-09-07T15:23:23;98803.34;;;35.56;32.63
7888;BME280;3989;48.810;9.208;2023-09-07T15:25:50;98930.31;;;37.54;31.52
7888;BME280;3989;48.810;9.208;2023-09-07T16:10:23;98915.34;;;39.24;27.46
7888;BME280;3989;48.810;9.208;2023-09-07T16:16:01;98892.22;;;38.29;28.18
7888;BME280;3989;48.810;9.208;2023-09-07T16:18:37;98926.91;;;38.91;27.42
7888;BME280;3989;48.810;9.208;2023-09-07T16:21:21;98874.19;;;38.86;27.33
7888;BME280;3989;48.810;9.208;2023-09-07T16:24:00;98867.25;;;37.74;28.37
7888;BME280;3989;48.810;9.208;2023-09-07T16:26:29;98865.47;;;36.41;29.91
7888;BME280;3989;48.810;9.208;2023-09-07T16:28:58;98921.91;;;34.29;33.09
7888;BME280;3989;48.810;9.208;2023-09-07T16:39:47;98684.25;;;28.02;40.51
7888;BME280;3989;48.810;9.208;2023-09-07T16:42:39;98912.28;;;28.96;41.83
7888;BME280;3989;48.810;9.208;2023-09-07T16:45:24;98778.56;;;27.59;42.34
7888;BME280;3989;48.810;9.208;2023-09-07T16:54:46;98851.63;;;27.40;44.22
7888;BME280;3989;48.810;9.208;2023-09-07T19:08:45;99004.63;;;22.16;95.42
7888;BME280;3989;48.810;9.208;2023-09-07T19:11:26;99020.09;;;22.16;94.96
7888;BME280;3989;48.810;9.208;2023-09-07T19:14:07;98961.59;;;21.80;97.32
7888;BME280;3989;48.810;9.208;2023-09-07T19:16:47;98979.56;;;21.81;100.00
7888;BME280;3989;48.810;9.208;2023-09-07T19:19:14;98918.91;;;21.30;100.00
7888;BME280;3989;48.810;9.208;2023-09-07T19:21:40;98939.25;;;21.28;100.00
7888;BME280;3989;48.810;9.208;2023-09-07T19:24:08;98946.22;;;21.24;100.00
7888;BME280;3989;48.810;9.208;2023-09-07T19:26:38;98960.91;;;21.11;100.00
7888;BME280;3989;48.810;9.208;2023-09-07T19:29:06;99004.53;;;21.21;100.00
7888;BME280;3989;48.810;9.208;2023-09-07T19:31:34;98898.25;;;20.45;100.00
7888;BME280;3989;48.810;9.208;2023-09-07T19:34:01;98970.19;;;20.75;100.00
7888;BME280;3989;48.810;9.208;2023-09-07T19:36:29;99001.75;;;20.93;100.00
7888;BME280;3989;48.810;9.208;2023-09-07T19:38:58;98955.72;;;20.58;100.00
7888;BME280;3989;48.810;9.208;2023-09-07T19:41:27;98904.72;;;19.97;100.00
7888;BME280;3989;48.810;9.208;2023-09-07T19:43:54;98923.94;;;19.96;100.00
7888;BME280;3989;48.810;9.208;2023-09-07T19:46:21;98995.22;;;20.19;100.00
7888;BME280;3989;48.810;9.208;2023-09-07T19:48:48;99007.81;;;20.14;100.00
7888;BME280;3989;48.810;9.208;2023-09-07T19:51:16;98906.41;;;19.33;100.00
7888;BME280;3989;48.810;9.208;2023-09-07T19:53:43;98969.13;;;19.60;100.00
7888;BME280;3989;48.810;9.208;2023-09-07T19:56:13;98988.66;;;19.62;100.00
7888;BME280;3989;48.810;9.208;2023-09-07T19:58:41;98967.00;;;19.32;100.00
7888;BME280;3989;48.810;9.208;2023-09-07T20:01:10;98914.25;;;18.94;100.00
7888;BME280;3989;48.810;9.208;2023-09-07T20:03:37;98924.84;;;18.83;100.00
7888;BME280;3989;48.810;9.208;2023-09-07T20:06:04;99018.66;;;19.31;100.00
7888;BME280;3989;48.810;9.208;2023-09-07T20:08:33;99023.81;;;19.32;100.00
7888;BME280;3989;48.810;9.208;2023-09-07T20:11:04;98996.97;;;19.01;100.00
7888;BME280;3989;48.810;9.208;2023-09-07T20:13:30;99028.16;;;19.22;100.00
7888;BME280;3989;48.810;9.208;2023-09-07T20:15:58;98987.03;;;18.83;100.00
7888;BME280;3989;48.810;9.208;2023-09-07T20:18:25;98935.22;;;18.50;100.00
7888;BME280;3989;48.810;9.208;2023-09-07T20:20:52;99029.31;;;18.96;100.00
7888;BME280;3989;48.810;9.208;2023-09-07T20:23:19;99015.94;;;18.83;100.00
7888;BME280;3989;48.810;9.208;2023-09-07T20:25:46;98931.03;;;18.29;100.00
7888;BME280;3989;48.810;9.208;2023-09-07T20:34:58;99017.06;;;18.57;100.00
7888;BME280;3989;48.810;9.208;2023-09-07T20:37:24;99023.50;;;18.56;100.00
7888;BME280;3989;48.810;9.208;2023-09-07T20:39:51;98986.22;;;18.22;100.00
7888;BME280;3989;48.810;9.208;2023-09-07T20:42:20;98969.13;;;18.03;100.00
7888;BME280;3989;48.810;9.208;2023-09-07T20:44:46;99024.72;;;18.35;100.00
7888;BME280;3989;48.810;9.208;2023-09-07T20:47:13;98937.03;;;17.70;100.00
7888;BME280;3989;48.810;9.208;2023-09-07T20:49:40;99005.50;;;18.01;100.00
7888;BME280;3989;48.810;9.208;2023-09-07T20:52:08;98995.38;;;17.96;100.00
7888;BME280;3989;48.810;9.208;2023-09-07T20:54:35;98992.94;;;17.88;100.00
7888;BME280;3989;48.810;9.208;2023-09-07T20:57:01;98993.78;;;17.89;100.00
7888;BME280;3989;48.810;9.208;2023-09-07T20:59:28;98984.34;;;17.73;100.00
7888;BME280;3989;48.810;9.208;2023-09-07T21:01:55;98957.09;;;17.50;100.00
7888;BME280;3989;48.810;9.208;2023-09-07T21:04:22;98994.81;;;17.63;100.00
7888;BME280;3989;48.810;9.208;2023-09-07T21:06:48;98992.75;;;17.58;100.00
7888;BME280;3989;48.810;9.208;2023-09-07T21:09:17;98984.66;;;17.52;100.00
7888;BME280;3989;48.810;9.208;2023-09-07T21:11:44;98989.47;;;17.50;100.00
7888;BME280;3989;48.810;9.208;2023-09-07T21:14:11;98990.34;;;17.44;100.00
7888;BME280;3989;48.810;9.208;2023-09-07T21:16:37;98990.09;;;17.45;100.00
7888;BME280;3989;48.810;9.208;2023-09-07T21:19:04;98930.66;;;17.02;100.00
7888;BME280;3989;48.810;9.208;2023-09-07T21:21:31;98928.41;;;16.93;100.00
7888;BME280;3989;48.810;9.208;2023-09-07T21:23:58;98976.59;;;17.20;100.00
7888;BME280;3989;48.810;9.208;2023-09-07T21:26:26;98939.19;;;16.93;100.00
7888;BME280;3989;48.810;9.208;2023-09-07T21:28:53;99037.59;;;17.53;100.00
7888;BME280;3989;48.810;9.208;2023-09-07T21:31:20;98994.19;;;17.23;100.00
7888;BME280;3989;48.810;9.208;2023-09-07T21:33:47;98929.34;;;16.73;100.00
7888;BME280;3989;48.810;9.208;2023-09-07T21:36:14;98995.94;;;17.11;100.00
7888;BME280;3989;48.810;9.208;2023-09-07T21:38:41;99004.84;;;17.11;100.00
7888;BME280;3989;48.810;9.208;2023-09-07T21:41:07;98928.97;;;16.63;100.00
7888;BME280;3989;48.810;9.208;2023-09-07T21:43:36;98977.19;;;16.78;100.00
7888;BME280;3989;48.810;9.208;2023-09-07T21:46:03;98968.28;;;16.77;100.00
7888;BME280;3989;48.810;9.208;2023-09-07T21:48:30;98976.56;;;16.83;100.00
7888;BME280;3989;48.810;9.208;2023-09-07T21:50:57;99033.91;;;17.03;100.00
7888;BME280;3989;48.810;9.208;2023-09-07T21:53:24;98957.38;;;16.46;100.00
7888;BME280;3989;48.810;9.208;2023-09-07T21:55:50;98933.00;;;16.35;100.00
7888;BME280;3989;48.810;9.208;2023-09-07T21:58:17;98954.06;;;16.51;100.00
7888;BME280;3989;48.810;9.208;2023-09-07T22:00:46;98954.50;;;16.48;100.00
7888;BME280;3989;48.810;9.208;2023-09-07T22:03:13;99037.88;;;17.00;100.00
7888;BME280;3989;48.810;9.208;2023-09-07T22:05:39;98992.38;;;16.72;100.00
7888;BME280;3989;48.810;9.208;2023-09-07T22:08:06;98998.59;;;16.73;100.00
7888;BME280;3989;48.810;9.208;2023-09-07T22:14:25;99021.16;;;16.78;100.00
7888;BME280;3989;48.810;9.208;2023-09-07T22:16:53;99015.81;;;16.65;100.00
7888;BME280;3989;48.810;9.208;2023-09-07T22:19:20;99024.91;;;16.64;100.00
7888;BME280;3989;48.810;9.208;2023-09-07T22:21:46;99007.94;;;16.51;100.00
7888;BME280;3989;48.810;9.208;2023-09-07T22:27:36;99016.03;;;16.44;100.00
7888;BME280;3989;48.810;9.208;2023-09-07T22:30:03;99010.25;;;16.41;100.00
7888;BME280;3989;48.810;9.208;2023-09-07T22:32:31;98989.16;;;16.24;100.00
7888;BME280;3989;48.810;9.208;2023-09-07T22:35:00;98920.66;;;15.81;100.00
7888;BME280;3989;48.810;9.208;2023-09-07T22:37:27;98982.34;;;16.15;100.00
7888;BME280;3989;48.810;9.208;2023-09-07T22:39:54;99023.94;;;16.33;100.00
7888;BME280;3989;48.810;9.208;2023-09-07T22:42:21;98909.91;;;15.68;100.00
7888;BME280;3989;48.810;9.208;2023-09-07T22:44:47;98911.34;;;15.70;100.00
7888;BME280;3989;48.810;9.208;2023-09-07T22:47:14;98916.53;;;15.72;100.00
7888;BME280;3989;48.810;9.208;2023-09-07T22:49:43;98928.97;;;15.73;100.00
7888;BME280;3989;48.810;9.208;2023-09-07T22:52:10;98953.38;;;15.85;100.00
7888;BME280;3989;48.810;9.208;2023-09-07T22:54:36;99021.03;;;16.27;100.00
7888;BME280;3989;48.810;9.208;2023-09-07T22:57:03;98947.13;;;15.97;100.00
7888;BME280;3989;48.810;9.208;2023-09-07T22:59:30;98956.47;;;15.95;100.00
7888;BME280;3989;48.810;9.208;2023-09-07T23:01:58;98919.41;;;15.70;100.00
7888;BME280;3989;48.810;9.208;2023-09-07T23:04:25;99007.19;;;16.17;100.00
7888;BME280;3989;48.810;9.208;2023-09-07T23:13:37;99014.66;;;15.96;100.00
7888;BME280;3989;48.810;9.208;2023-09-07T23:16:04;98971.19;;;15.72;100.00
7888;BME280;3989;48.810;9.208;2023-09-07T23:18:31;99015.88;;;15.93;100.00
7888;BME280;3989;48.810;9.208;2023-09-07T23:24:20;99019.81;;;15.84;100.00
7888;BME280;3989;48.810;9.208;2023-09-07T23:26:46;98991.69;;;15.67;100.00
7888;BME280;3989;48.810;9.208;2023-09-07T23:29:15;99010.09;;;15.83;100.00
7888;BME280;3989;48.810;9.208;2023-09-07T23:35:33;99022.50;;;15.71;100.00
7888;BME280;3989;48.810;9.208;2023-09-07T23:41:45;99003.22;;;15.54;100.00
7888;BME280;3989;48.810;9.208;2023-09-07T23:44:12;99007.94;;;15.46;100.00
7888;BME280;3989;48.810;9.208;2023-09-07T23:46:40;98919.31;;;14.85;100.00
7888;BME280;3989;48.810;9.208;2023-09-07T23:49:06;98923.88;;;14.91;100.00
7888;BME280;3989;48.810;9.208;2023-09-07T23:54:55;98996.63;;;15.50;100.00
7888;BME280;3989;48.810;9.208;2023-09-07T23:57:21;99005.53;;;15.51;100.00
7888;BME280;3989;48.810;9.208;2023-09-07T23:59:48;98978.56;;;15.38;100.00
